Tabellarische Übersicht vom Montag, den 20.01.2020

Oder anderes Datum wählen:






max 6,7°C 95,0% 4,9°C 1047,6hPa 7,0°C 0,0km/h (0Bft) 0,0km/h 0° (N) ∑0,2l/m² 28,000klx ∑0,0min
min -0,3°C 86,0% -1,0°C 1044,9hPa 0,0°C 0,0km/h (0Bft) 0,0km/h 0° (N) ∑0,2l/m² 0,000klx ∑0,0min
Ø 2,6°C 93,0% 1,6°C 1046,2hPa 3,0°C 0,0km/h (0Bft) 0,0km/h 0° (N) ∑0,2l/m² 10,000klx ∑0,0min
Zeit Temperatur Luftfeuchte Taupunkt Luftdruck Windchill Windböen Windgeschwindigkeit Windrichtung Regen Helligkeit Regenzeit
16:05 6,2°C 86,7% 4,1°C 1045,7hPa 6,2°C 0,0km/h (0Bft) 0,0km/h 0,0l/m² 3,417klx 0,0min
16:00 6,2°C 87,5% 4,3°C 1045,6hPa 6,2°C 0,0km/h (0Bft) 0,0km/h 0,0l/m² 3,687klx 0,0min
15:55 6,3°C 87,7% 4,4°C 1045,6hPa 6,3°C 0,0km/h (0Bft) 0,0km/h 0,0l/m² 3,897klx 0,0min
15:50 6,3°C 86,8% 4,2°C 1045,7hPa 6,3°C 0,0km/h (0Bft) 0,0km/h 0,0l/m² 4,140klx 0,0min
15:45 6,3°C 86,8% 4,3°C 1045,7hPa 6,3°C 0,0km/h (0Bft) 0,0km/h 0,0l/m² 4,439klx 0,0min
15:40 6,4°C 87,0% 4,4°C 1045,7hPa 6,4°C 0,0km/h (0Bft) 0,0km/h 0,0l/m² 4,806klx 0,0min
15:35 6,4°C 86,4% 4,3°C 1045,7hPa 6,4°C 0,0km/h (0Bft) 0,0km/h 0,0l/m² 5,246klx 0,0min
15:30 6,5°C 86,4% 4,4°C 1045,7hPa 6,5°C 0,0km/h (0Bft) 0,0km/h 0,0l/m² 5,588klx 0,0min
15:25 6,6°C 87,0% 4,5°C 1045,7hPa 6,6°C 0,0km/h (0Bft) 0,0km/h 0,0l/m² 5,821klx 0,0min
15:20 6,5°C 86,4% 4,4°C 1045,8hPa 6,5°C 0,0km/h (0Bft) 0,0km/h 0,0l/m² 6,081klx 0,0min
15:15 6,5°C 87,4% 4,6°C 1045,8hPa 6,5°C 0,0km/h (0Bft) 0,0km/h 0,0l/m² 6,432klx 0,0min
15:10 6,6°C 88,0% 4,7°C 1045,8hPa 6,6°C 0,0km/h (0Bft) 0,0km/h 0,0l/m² 6,884klx 0,0min
15:05 6,7°C 88,3% 4,9°C 1045,9hPa 6,7°C 0,0km/h (0Bft) 0,0km/h 0,0l/m² 7,400klx 0,0min
15:00 6,7°C 88,1% 4,9°C 1046,0hPa 6,7°C 0,0km/h (0Bft) 0,0km/h 0,0l/m² 8,057klx 0,0min
14:55 6,6°C 87,8% 4,7°C 1046,1hPa 6,6°C 0,0km/h (0Bft) 0,0km/h 0,0l/m² 8,772klx 0,0min
14:50 6,7°C 87,8% 4,8°C 1046,1hPa 6,7°C 0,0km/h (0Bft) 0,0km/h 0,0l/m² 9,134klx 0,0min
14:45 6,7°C 87,4% 4,7°C 1046,2hPa 6,7°C 0,0km/h (0Bft) 0,0km/h 0,0l/m² 9,932klx 0,0min
14:40 6,6°C 87,2% 4,6°C 1046,4hPa 6,6°C 0,0km/h (0Bft) 0,0km/h 0,0l/m² 10,141klx 0,0min
14:35 6,6°C 87,5% 4,6°C 1046,4hPa 6,6°C 0,0km/h (0Bft) 0,0km/h 0,0l/m² 10,702klx 0,0min
14:30 6,6°C 88,2% 4,8°C 1046,4hPa 6,6°C 0,0km/h (0Bft) 0,0km/h 0,0l/m² 11,383klx 0,0min
14:25 6,6°C 88,1% 4,7°C 1046,4hPa 6,6°C 0,0km/h (0Bft) 0,0km/h 0,0l/m² 11,435klx 0,0min
14:20 6,6°C 88,3% 4,8°C 1046,4hPa 6,6°C 0,0km/h (0Bft) 0,0km/h 0,0l/m² 11,840klx 0,0min
14:15 6,6°C 88,5% 4,8°C 1046,4hPa 6,6°C 0,0km/h (0Bft) 0,0km/h 0,0l/m² 12,540klx 0,0min
14:10 6,4°C 88,3% 4,6°C 1046,5hPa 6,4°C 0,0km/h (0Bft) 0,0km/h 0,0l/m² 14,057klx 0,0min
14:05 6,3°C 88,3% 4,5°C 1046,5hPa 6,3°C 0,0km/h (0Bft) 0,0km/h 0,0l/m² 16,510klx 0,0min
14:00 6,5°C 88,7% 4,8°C 1046,6hPa 6,5°C 0,0km/h (0Bft) 0,0km/h 0,0l/m² 19,756klx 0,0min
13:55 6,4°C 89,0% 4,7°C 1046,7hPa 6,4°C 0,0km/h (0Bft) 0,0km/h 0,0l/m² 23,003klx 0,0min
13:50 6,4°C 89,9% 4,9°C 1046,7hPa 6,4°C 0,0km/h (0Bft) 0,0km/h 0,0l/m² 26,797klx 0,0min
13:45 6,1°C 90,4% 4,7°C 1046,8hPa 6,1°C 0,0km/h (0Bft) 0,0km/h 0,0l/m² 27,755klx 0,0min
13:40 6,2°C 90,9% 4,8°C 1046,8hPa 6,2°C 0,0km/h (0Bft) 0,0km/h 0,0l/m² 23,478klx 0,0min
13:35 6,1°C 91,4% 4,8°C 1046,9hPa 6,1°C 0,0km/h (0Bft) 0,0km/h 0,0l/m² 22,393klx 0,0min
13:30 5,7°C 91,5% 4,5°C 1047,0hPa 5,7°C 0,0km/h (0Bft) 0,0km/h 0,0l/m² 20,153klx 0,0min
13:25 5,7°C 91,5% 4,4°C 1047,0hPa 5,7°C 0,0km/h (0Bft) 0,0km/h 0,0l/m² 18,289klx 0,0min
13:20 5,8°C 91,5% 4,5°C 1047,0hPa 5,8°C 0,0km/h (0Bft) 0,0km/h 0,0l/m² 16,441klx 0,0min
13:15 5,8°C 91,8% 4,5°C 1047,0hPa 5,8°C 0,0km/h (0Bft) 0,0km/h 0,0l/m² 16,840klx 0,0min
13:10 5,7°C 91,9% 4,5°C 1047,1hPa 5,7°C 0,0km/h (0Bft) 0,0km/h 0,0l/m² 15,112klx 0,0min
13:05 5,6°C 92,0% 4,4°C 1047,1hPa 5,6°C 0,0km/h (0Bft) 0,0km/h 0,0l/m² 17,179klx 0,0min
13:00 5,6°C 91,9% 4,4°C 1047,1hPa 5,6°C 0,0km/h (0Bft) 0,0km/h 0,0l/m² 17,675klx 0,0min
12:55 5,5°C 92,1% 4,3°C 1047,1hPa 5,5°C 0,0km/h (0Bft) 0,0km/h 0,0l/m² 17,273klx 0,0min
12:50 5,6°C 92,3% 4,5°C 1047,2hPa 5,6°C 0,0km/h (0Bft) 0,0km/h 0,0l/m² 17,390klx 0,0min
12:45 5,6°C 92,4% 4,4°C 1047,3hPa 5,6°C 0,0km/h (0Bft) 0,0km/h 0,0l/m² 17,914klx 0,0min
12:40 5,4°C 92,6% 4,3°C 1047,3hPa 5,4°C 0,0km/h (0Bft) 0,0km/h 0,0l/m² 18,750klx 0,0min
12:35 5,2°C 92,7% 4,1°C 1047,2hPa 5,2°C 0,0km/h (0Bft) 0,0km/h 0,0l/m² 17,893klx 0,0min
12:30 5,2°C 92,9% 4,1°C 1047,2hPa 5,2°C 0,0km/h (0Bft) 0,0km/h 0,0l/m² 15,156klx 0,0min
12:25 5,1°C 93,0% 4,1°C 1047,2hPa 5,1°C 0,0km/h (0Bft) 0,0km/h 0,0l/m² 17,163klx 0,0min
12:20 5,1°C 93,0% 4,0°C 1047,2hPa 5,1°C 0,0km/h (0Bft) 0,0km/h 0,0l/m² 12,705klx 0,0min
12:15 5,1°C 93,0% 4,0°C 1047,2hPa 5,1°C 0,0km/h (0Bft) 0,0km/h 0,0l/m² 12,146klx 0,0min
12:10 5,1°C 93,1% 4,1°C 1047,3hPa 5,1°C 0,0km/h (0Bft) 0,0km/h 0,0l/m² 14,489klx 0,0min
12:05 5,1°C 93,2% 4,0°C 1047,3hPa 5,1°C 0,0km/h (0Bft) 0,0km/h 0,0l/m² 12,850klx 0,0min
12:00 5,1°C 93,3% 4,1°C 1047,3hPa 5,1°C 0,0km/h (0Bft) 0,0km/h 0,0l/m² 13,662klx 0,0min
11:55 5,0°C 93,4% 4,0°C 1047,2hPa 5,0°C 0,0km/h (0Bft) 0,0km/h 0,0l/m² 13,010klx 0,0min
11:50 5,0°C 93,4% 4,1°C 1047,3hPa 5,0°C 0,0km/h (0Bft) 0,0km/h 0,0l/m² 13,439klx 0,0min
11:45 5,2°C 93,4% 4,2°C 1047,4hPa 5,2°C 0,0km/h (0Bft) 0,0km/h 0,0l/m² 14,757klx 0,0min
11:40 5,3°C 93,5% 4,3°C 1047,4hPa 5,3°C 0,0km/h (0Bft) 0,0km/h 0,0l/m² 16,349klx 0,0min
11:35 5,3°C 93,7% 4,4°C 1047,5hPa 5,3°C 0,0km/h (0Bft) 0,0km/h 0,0l/m² 22,167klx 0,0min
11:30 5,2°C 93,8% 4,3°C 1047,5hPa 5,2°C 0,0km/h (0Bft) 0,0km/h 0,0l/m² 23,061klx 0,0min
11:25 4,9°C 93,9% 4,0°C 1047,5hPa 4,9°C 0,0km/h (0Bft) 0,0km/h 0,0l/m² 23,340klx 0,0min
11:20 4,7°C 94,0% 3,9°C 1047,4hPa 4,7°C 0,0km/h (0Bft) 0,0km/h 0,0l/m² 20,025klx 0,0min
11:15 4,6°C 94,1% 3,7°C 1047,5hPa 4,6°C 0,0km/h (0Bft) 0,0km/h 0,0l/m² 19,875klx 0,0min
11:10 4,5°C 94,2% 3,6°C 1047,5hPa 4,5°C 0,0km/h (0Bft) 0,0km/h 0,0l/m² 21,333klx 0,0min
11:05 4,4°C 94,3% 3,6°C 1047,6hPa 4,4°C 0,0km/h (0Bft) 0,0km/h 0,0l/m² 18,121klx 0,0min
11:00 4,0°C 94,4% 3,2°C 1047,6hPa 4,0°C 0,0km/h (0Bft) 0,0km/h 0,0l/m² 17,503klx 0,0min
10:55 3,8°C 94,4% 3,0°C 1047,5hPa 3,8°C 0,0km/h (0Bft) 0,0km/h 0,0l/m² 16,267klx 0,0min
10:50 3,6°C 94,4% 2,8°C 1047,5hPa 3,6°C 0,0km/h (0Bft) 0,0km/h 0,0l/m² 13,690klx 0,0min
10:45 3,4°C 94,4% 2,6°C 1047,5hPa 3,4°C 0,0km/h (0Bft) 0,0km/h 0,0l/m² 9,695klx 0,0min
10:40 3,4°C 94,4% 2,6°C 1047,5hPa 3,4°C 0,0km/h (0Bft) 0,0km/h 0,0l/m² 10,009klx 0,0min
10:35 3,4°C 94,4% 2,6°C 1047,5hPa 3,4°C 0,0km/h (0Bft) 0,0km/h 0,0l/m² 11,626klx 0,0min
10:30 3,3°C 94,4% 2,5°C 1047,5hPa 3,3°C 0,0km/h (0Bft) 0,0km/h 0,0l/m² 10,593klx 0,0min
10:25 3,2°C 94,4% 2,4°C 1047,5hPa 3,2°C 0,0km/h (0Bft) 0,0km/h 0,0l/m² 8,550klx 0,0min
10:20 3,1°C 94,4% 2,3°C 1047,5hPa 3,1°C 0,0km/h (0Bft) 0,0km/h 0,0l/m² 7,860klx 0,0min
10:15 3,1°C 94,4% 2,3°C 1047,5hPa 3,1°C 0,0km/h (0Bft) 0,0km/h 0,0l/m² 7,409klx 0,0min
10:10 3,1°C 94,4% 2,3°C 1047,4hPa 3,1°C 0,0km/h (0Bft) 0,0km/h 0,0l/m² 5,330klx 0,0min
10:05 3,1°C 94,4% 2,3°C 1047,4hPa 3,1°C 0,0km/h (0Bft) 0,0km/h 0,0l/m² 4,988klx 0,0min
10:00 3,0°C 94,4% 2,2°C 1047,3hPa 3,0°C 0,0km/h (0Bft) 0,0km/h 0,0l/m² 5,690klx 0,0min
09:55 3,0°C 94,5% 2,2°C 1047,3hPa 3,0°C 0,0km/h (0Bft) 0,0km/h 0,0l/m² 5,199klx 0,0min
09:50 2,9°C 94,5% 2,1°C 1047,2hPa 2,9°C 0,0km/h (0Bft) 0,0km/h 0,0l/m² 4,663klx 0,0min
09:45 2,8°C 94,5% 2,0°C 1047,2hPa 2,8°C 0,0km/h (0Bft) 0,0km/h 0,0l/m² 4,328klx 0,0min
09:40 2,7°C 94,5% 1,9°C 1047,2hPa 2,7°C 0,0km/h (0Bft) 0,0km/h 0,0l/m² 3,876klx 0,0min
09:35 2,7°C 94,5% 1,9°C 1047,1hPa 2,7°C 0,0km/h (0Bft) 0,0km/h 0,0l/m² 3,358klx 0,0min
09:30 2,6°C 94,5% 1,8°C 1047,1hPa 2,6°C 0,0km/h (0Bft) 0,0km/h 0,0l/m² 2,680klx 0,0min
09:25 2,6°C 94,5% 1,8°C 1047,0hPa 2,6°C 0,0km/h (0Bft) 0,0km/h 0,0l/m² 2,103klx 0,0min
09:20 2,5°C 94,5% 1,7°C 1047,0hPa 2,5°C 0,0km/h (0Bft) 0,0km/h 0,0l/m² 1,978klx 0,0min
09:15 2,5°C 94,6% 1,7°C 1046,9hPa 2,5°C 0,0km/h (0Bft) 0,0km/h 0,0l/m² 1,806klx 0,0min
09:10 2,5°C 94,6% 1,7°C 1046,9hPa 2,5°C 0,0km/h (0Bft) 0,0km/h 0,0l/m² 1,702klx 0,0min
09:05 2,4°C 94,6% 1,7°C 1046,9hPa 2,4°C 0,0km/h (0Bft) 0,0km/h 0,0l/m² 1,374klx 0,0min
09:00 2,4°C 94,6% 1,6°C 1046,8hPa 2,4°C 0,0km/h (0Bft) 0,0km/h 0,0l/m² 1,192klx 0,0min
08:55 2,3°C 94,6% 1,6°C 1046,7hPa 2,3°C 0,0km/h (0Bft) 0,0km/h 0,0l/m² 1,135klx 0,0min
08:50 2,3°C 94,6% 1,5°C 1046,5hPa 2,3°C 0,0km/h (0Bft) 0,0km/h 0,0l/m² 1,178klx 0,0min
08:45 2,2°C 94,6% 1,5°C 1046,5hPa 2,2°C 0,0km/h (0Bft) 0,0km/h 0,0l/m² 1,014klx 0,0min
08:40 2,2°C 94,6% 1,4°C 1046,4hPa 2,2°C 0,0km/h (0Bft) 0,0km/h 0,0l/m² 0,700klx 0,0min
08:35 2,1°C 94,6% 1,3°C 1046,4hPa 2,1°C 0,0km/h (0Bft) 0,0km/h 0,0l/m² 0,493klx 0,0min
08:30 2,0°C 94,6% 1,2°C 1046,4hPa 2,0°C 0,0km/h (0Bft) 0,0km/h 0,0l/m² 0,395klx 0,0min
08:25 1,9°C 94,6% 1,1°C 1046,3hPa 1,9°C 0,0km/h (0Bft) 0,0km/h 0,0l/m² 0,289klx 0,0min
08:20 1,8°C 94,6% 1,1°C 1046,2hPa 1,8°C 0,0km/h (0Bft) 0,0km/h 0,0l/m² 0,171klx 0,0min
08:15 1,8°C 94,6% 1,0°C 1046,2hPa 1,8°C 0,0km/h (0Bft) 0,0km/h 0,0l/m² 0,103klx 0,0min
08:10 1,7°C 94,6% 0,9°C 1046,2hPa 1,7°C 0,0km/h (0Bft) 0,0km/h 0,0l/m² 0,049klx 0,0min
08:05 1,7°C 94,6% 0,9°C 1046,2hPa 1,7°C 0,0km/h (0Bft) 0,0km/h 0,0l/m² 0,023klx 0,0min
08:00 1,6°C 94,5% 0,8°C 1046,2hPa 1,6°C 0,0km/h (0Bft) 0,0km/h 0,0l/m² 0,011klx 0,0min
07:55 1,5°C 94,5% 0,7°C 1046,2hPa 1,5°C 0,0km/h (0Bft) 0,0km/h 0,0l/m² 0,005klx 0,0min
07:50 1,6°C 94,5% 0,8°C 1046,2hPa 1,6°C 0,0km/h (0Bft) 0,0km/h 0,0l/m² 0,002klx 0,0min
07:45 1,6°C 94,5% 0,8°C 1046,2hPa 1,6°C 0,0km/h (0Bft) 0,0km/h 0,0l/m² 0,001klx 0,0min
07:40 1,6°C 94,5% 0,9°C 1046,2hPa 1,6°C 0,0km/h (0Bft) 0,0km/h 0,0l/m² 0,001klx 0,0min
07:35 1,6°C 94,5% 0,8°C 1046,2hPa 1,6°C 0,0km/h (0Bft) 0,0km/h 0,0l/m² 0,000klx 0,0min
07:30 1,6°C 94,5% 0,8°C 1046,2hPa 1,6°C 0,0km/h (0Bft) 0,0km/h 0,0l/m² 0,000klx 0,0min
07:25 1,6°C 94,5% 0,8°C 1046,2hPa 1,6°C 0,0km/h (0Bft) 0,0km/h 0,0l/m² 0,000klx 0,0min
07:20 1,6°C 94,5% 0,8°C 1046,1hPa 1,6°C 0,0km/h (0Bft) 0,0km/h 0,0l/m² 0,000klx 0,0min
07:15 1,5°C 94,5% 0,8°C 1046,0hPa 1,5°C 0,0km/h (0Bft) 0,0km/h 0,0l/m² 0,000klx 0,0min
07:10 1,5°C 94,5% 0,7°C 1045,9hPa 1,5°C 0,0km/h (0Bft) 0,0km/h 0,0l/m² 0,000klx 0,0min
07:05 1,4°C 94,5% 0,6°C 1045,9hPa 1,4°C 0,0km/h (0Bft) 0,0km/h 0,0l/m² 0,000klx 0,0min
07:00 1,4°C 94,5% 0,6°C 1045,9hPa 1,4°C 0,0km/h (0Bft) 0,0km/h 0,0l/m² 0,000klx 0,0min
06:55 1,3°C 94,5% 0,5°C 1045,9hPa 1,3°C 0,0km/h (0Bft) 0,0km/h 0,0l/m² 0,000klx 0,0min
06:50 1,3°C 94,5% 0,5°C 1045,9hPa 1,3°C 0,0km/h (0Bft) 0,0km/h 0,0l/m² 0,000klx 0,0min
06:45 1,2°C 94,5% 0,4°C 1045,9hPa 1,2°C 0,0km/h (0Bft) 0,0km/h 0,0l/m² 0,000klx 0,0min
06:40 1,2°C 94,5% 0,4°C 1045,9hPa 1,2°C 0,0km/h (0Bft) 0,0km/h 0,0l/m² 0,000klx 0,0min
06:35 1,1°C 94,5% 0,3°C 1045,9hPa 1,1°C 0,0km/h (0Bft) 0,0km/h 0,0l/m² 0,000klx 0,0min
06:30 1,1°C 94,5% 0,3°C 1046,0hPa 1,1°C 0,0km/h (0Bft) 0,0km/h 0,0l/m² 0,000klx 0,0min
06:25 1,1°C 94,6% 0,3°C 1045,9hPa 1,1°C 0,0km/h (0Bft) 0,0km/h 0,0l/m² 0,000klx 0,0min
06:20 1,0°C 94,6% 0,2°C 1045,9hPa 1,0°C 0,0km/h (0Bft) 0,0km/h 0,0l/m² 0,000klx 0,0min
06:15 1,0°C 94,5% 0,2°C 1045,9hPa 1,0°C 0,0km/h (0Bft) 0,0km/h 0,0l/m² 0,000klx 0,0min
06:10 0,9°C 94,5% 0,2°C 1046,0hPa 0,9°C 0,0km/h (0Bft) 0,0km/h 0,0l/m² 0,000klx 0,0min
06:05 0,9°C 94,5% 0,1°C 1046,0hPa 0,9°C 0,0km/h (0Bft) 0,0km/h 0,0l/m² 0,000klx 0,0min
06:00 0,8°C 94,5% 0,0°C 1046,1hPa 0,8°C 0,0km/h (0Bft) 0,0km/h 0,0l/m² 0,000klx 0,0min
05:55 0,8°C 94,5% 0,0°C 1046,1hPa 0,8°C 0,0km/h (0Bft) 0,0km/h 0,0l/m² 0,000klx 0,0min
05:50 0,8°C 94,5% 0,0°C 1046,1hPa 0,8°C 0,0km/h (0Bft) 0,0km/h 0,0l/m² 0,000klx 0,0min
05:45 0,9°C 94,5% 0,1°C 1046,0hPa 0,9°C 0,0km/h (0Bft) 0,0km/h 0,0l/m² 0,000klx 0,0min
05:40 0,9°C 94,5% 0,1°C 1046,0hPa 0,9°C 0,0km/h (0Bft) 0,0km/h 0,0l/m² 0,000klx 0,0min
05:35 0,8°C 94,5% 0,0°C 1046,0hPa 0,8°C 0,0km/h (0Bft) 0,0km/h 0,0l/m² 0,000klx 0,0min
05:30 0,8°C 94,4% 0,0°C 1045,9hPa 0,8°C 0,0km/h (0Bft) 0,0km/h 0,0l/m² 0,000klx 0,0min
05:25 0,8°C 94,4% 0,0°C 1045,9hPa 0,8°C 0,0km/h (0Bft) 0,0km/h 0,0l/m² 0,000klx 0,0min
05:20 0,9°C 94,4% 0,1°C 1045,9hPa 0,9°C 0,0km/h (0Bft) 0,0km/h 0,0l/m² 0,000klx 0,0min
05:15 1,0°C 94,4% 0,2°C 1045,9hPa 1,0°C 0,0km/h (0Bft) 0,0km/h 0,0l/m² 0,000klx 0,0min
05:10 0,8°C 94,5% 0,1°C 1045,9hPa 0,8°C 0,0km/h (0Bft) 0,0km/h 0,0l/m² 0,000klx 0,0min
05:05 0,7°C 94,5% 0,0°C 1045,8hPa 0,7°C 0,0km/h (0Bft) 0,0km/h 0,0l/m² 0,000klx 0,0min
05:00 0,6°C 94,5% -0,2°C 1045,8hPa 0,6°C 0,0km/h (0Bft) 0,0km/h 0,0l/m² 0,000klx 0,0min
04:55 0,6°C 94,5% -0,2°C 1045,7hPa 0,6°C 0,0km/h (0Bft) 0,0km/h 0,0l/m² 0,000klx 0,0min
04:50 0,6°C 94,5% -0,1°C 1045,7hPa 0,6°C 0,0km/h (0Bft) 0,0km/h 0,0l/m² 0,000klx 0,0min
04:45 0,6°C 94,5% -0,1°C 1045,8hPa 0,6°C 0,0km/h (0Bft) 0,0km/h 0,0l/m² 0,000klx 0,0min
04:40 0,6°C 94,5% -0,1°C 1045,7hPa 0,6°C 0,0km/h (0Bft) 0,0km/h 0,0l/m² 0,000klx 0,0min
04:35 0,6°C 94,5% -0,2°C 1045,7hPa 0,6°C 0,0km/h (0Bft) 0,0km/h 0,0l/m² 0,000klx 0,0min
04:30 0,5°C 94,5% -0,2°C 1045,6hPa 0,5°C 0,0km/h (0Bft) 0,0km/h 0,0l/m² 0,000klx 0,0min
04:25 0,6°C 94,5% -0,2°C 1045,7hPa 0,6°C 0,0km/h (0Bft) 0,0km/h 0,0l/m² 0,000klx 0,0min
04:20 0,5°C 94,5% -0,3°C 1045,6hPa 0,5°C 0,0km/h (0Bft) 0,0km/h 0,0l/m² 0,000klx 0,0min
04:15 0,4°C 94,5% -0,4°C 1045,6hPa 0,4°C 0,0km/h (0Bft) 0,0km/h 0,0l/m² 0,000klx 0,0min
04:10 0,4°C 94,5% -0,4°C 1045,5hPa 0,4°C 0,0km/h (0Bft) 0,0km/h 0,0l/m² 0,000klx 0,0min
04:05 0,3°C 94,5% -0,5°C 1045,5hPa 0,3°C 0,0km/h (0Bft) 0,0km/h 0,0l/m² 0,000klx 0,0min
04:00 0,2°C 94,5% -0,5°C 1045,5hPa 0,2°C 0,0km/h (0Bft) 0,0km/h 0,0l/m² 0,000klx 0,0min
03:55 0,3°C 94,5% -0,5°C 1045,5hPa 0,3°C 0,0km/h (0Bft) 0,0km/h 0,0l/m² 0,000klx 0,0min
03:50 0,3°C 94,5% -0,5°C 1045,6hPa 0,3°C 0,0km/h (0Bft) 0,0km/h 0,0l/m² 0,000klx 0,0min
03:45 0,3°C 94,5% -0,5°C 1045,6hPa 0,3°C 0,0km/h (0Bft) 0,0km/h 0,0l/m² 0,000klx 0,0min
03:40 0,1°C 94,5% -0,6°C 1045,6hPa 0,1°C 0,0km/h (0Bft) 0,0km/h 0,0l/m² 0,000klx 0,0min
03:35 0,0°C 94,5% -0,7°C 1045,6hPa 0,0°C 0,0km/h (0Bft) 0,0km/h 0,0l/m² 0,001klx 0,0min
03:30 0,0°C 94,5% -0,8°C 1045,7hPa 0,0°C 0,0km/h (0Bft) 0,0km/h 0,0l/m² 0,001klx 0,0min
03:25 -0,1°C 94,5% -0,7°C 1045,6hPa -0,1°C 0,0km/h (0Bft) 0,0km/h 0,0l/m² 0,000klx 0,0min
03:20 -0,1°C 94,5% -0,8°C 1045,6hPa -0,1°C 0,0km/h (0Bft) 0,0km/h 0,0l/m² 0,001klx 0,0min
03:15 -0,2°C 94,5% -0,9°C 1045,6hPa -0,2°C 0,0km/h (0Bft) 0,0km/h 0,0l/m² 0,001klx 0,0min
03:10 -0,2°C 94,5% -0,9°C 1045,6hPa -0,2°C 0,0km/h (0Bft) 0,0km/h 0,0l/m² 0,001klx 0,0min
03:05 -0,1°C 94,4% -0,8°C 1045,7hPa -0,1°C 0,0km/h (0Bft) 0,0km/h 0,0l/m² 0,001klx 0,0min
03:00 -0,2°C 94,4% -0,9°C 1045,7hPa -0,2°C 0,0km/h (0Bft) 0,0km/h 0,0l/m² 0,000klx 0,0min
02:55 -0,2°C 94,4% -0,9°C 1045,6hPa -0,2°C 0,0km/h (0Bft) 0,0km/h 0,0l/m² 0,000klx 0,0min
02:50 -0,2°C 94,4% -0,9°C 1045,7hPa -0,2°C 0,0km/h (0Bft) 0,0km/h 0,0l/m² 0,000klx 0,0min
02:45 -0,3°C 94,4% -1,0°C 1045,7hPa -0,3°C 0,0km/h (0Bft) 0,0km/h 0,0l/m² 0,001klx 0,0min
02:40 -0,2°C 94,4% -0,9°C 1045,6hPa -0,2°C 0,0km/h (0Bft) 0,0km/h 0,0l/m² 0,000klx 0,0min
02:35 -0,1°C 94,4% -0,8°C 1045,5hPa -0,1°C 0,0km/h (0Bft) 0,0km/h 0,0l/m² 0,000klx 0,0min
02:30 -0,1°C 94,4% -0,8°C 1045,6hPa -0,1°C 0,0km/h (0Bft) 0,0km/h 0,0l/m² 0,000klx 0,0min
02:25 -0,1°C 94,4% -0,8°C 1045,6hPa -0,1°C 0,0km/h (0Bft) 0,0km/h 0,0l/m² 0,000klx 0,0min
02:20 -0,2°C 94,4% -0,9°C 1045,5hPa -0,2°C 0,0km/h (0Bft) 0,0km/h 0,0l/m² 0,000klx 0,0min
02:15 -0,2°C 94,4% -0,9°C 1045,4hPa -0,2°C 0,0km/h (0Bft) 0,0km/h 0,0l/m² 0,000klx 0,0min
02:10 -0,2°C 94,4% -0,9°C 1045,5hPa -0,2°C 0,0km/h (0Bft) 0,0km/h 0,0l/m² 0,000klx 0,0min
02:05 -0,2°C 94,4% -0,9°C 1045,5hPa -0,2°C 0,0km/h (0Bft) 0,0km/h 0,0l/m² 0,000klx 0,0min
02:00 -0,2°C 94,4% -0,9°C 1045,5hPa -0,2°C 0,0km/h (0Bft) 0,0km/h 0,0l/m² 0,001klx 0,0min
01:55 -0,2°C 94,4% -0,9°C 1045,5hPa -0,2°C 0,0km/h (0Bft) 0,0km/h 0,0l/m² 0,000klx 0,0min
01:50 -0,1°C 94,4% -0,8°C 1045,5hPa -0,1°C 0,0km/h (0Bft) 0,0km/h 0,0l/m² 0,001klx 0,0min
01:45 -0,1°C 94,4% -0,8°C 1045,5hPa -0,1°C 0,0km/h (0Bft) 0,0km/h 0,0l/m² 0,001klx 0,0min
01:40 -0,2°C 94,4% -0,9°C 1045,4hPa -0,2°C 0,0km/h (0Bft) 0,0km/h 0,0l/m² 0,001klx 0,0min
01:35 -0,1°C 94,3% -0,8°C 1045,5hPa -0,1°C 0,0km/h (0Bft) 0,0km/h 0,0l/m² 0,000klx 0,0min
01:30 0,0°C 94,3% -0,7°C 1045,5hPa 0,0°C 0,0km/h (0Bft) 0,0km/h 0,0l/m² 0,001klx 0,0min
01:25 0,0°C 94,3% -0,8°C 1045,5hPa 0,0°C 0,0km/h (0Bft) 0,0km/h 0,0l/m² 0,001klx 0,0min
01:20 0,0°C 94,3% -0,7°C 1045,5hPa 0,0°C 0,0km/h (0Bft) 0,0km/h 0,0l/m² 0,000klx 0,0min
01:15 0,0°C 94,3% -0,7°C 1045,4hPa 0,0°C 0,0km/h (0Bft) 0,0km/h 0,0l/m² 0,001klx 0,0min
01:10 -0,1°C 94,3% -0,8°C 1045,4hPa -0,1°C 0,0km/h (0Bft) 0,0km/h 0,0l/m² 0,001klx 0,0min
01:05 -0,1°C 94,3% -0,8°C 1045,4hPa -0,1°C 0,0km/h (0Bft) 0,0km/h 0,0l/m² 0,000klx 0,0min
01:00 0,0°C 94,2% -0,8°C 1045,4hPa 0,0°C 0,0km/h (0Bft) 0,0km/h 0,0l/m² 0,000klx 0,0min
00:55 0,1°C 94,2% -0,7°C 1045,3hPa 0,1°C 0,0km/h (0Bft) 0,0km/h 0,0l/m² 0,000klx 0,0min
00:50 0,3°C 94,2% -0,5°C 1045,3hPa 0,3°C 0,0km/h (0Bft) 0,0km/h 0,0l/m² 0,000klx 0,0min
00:45 0,3°C 94,2% -0,5°C 1045,2hPa 0,3°C 0,0km/h (0Bft) 0,0km/h 0,0l/m² 0,001klx 0,0min
00:40 0,4°C 94,1% -0,5°C 1045,1hPa 0,4°C 0,0km/h (0Bft) 0,0km/h 0,0l/m² 0,000klx 0,0min
00:35 0,4°C 94,1% -0,4°C 1045,0hPa 0,4°C 0,0km/h (0Bft) 0,0km/h 0,0l/m² 0,000klx 0,0min
00:30 0,4°C 94,1% -0,5°C 1045,0hPa 0,4°C 0,0km/h (0Bft) 0,0km/h 0,0l/m² 0,001klx 0,0min
00:25 0,3°C 94,1% -0,5°C 1044,9hPa 0,3°C 0,0km/h (0Bft) 0,0km/h 0,0l/m² 0,001klx 0,0min
00:20 0,3°C 94,1% -0,5°C 1045,0hPa 0,3°C 0,0km/h (0Bft) 0,0km/h 0,0l/m² 0,000klx 0,0min
00:15 0,2°C 94,1% -0,6°C 1045,0hPa 0,2°C 0,0km/h (0Bft) 0,0km/h 0,0l/m² 0,001klx 0,0min
00:10 0,2°C 94,1% -0,7°C 1045,0hPa 0,2°C 0,0km/h (0Bft) 0,0km/h 0,0l/m² 0,000klx 0,0min
00:05 0,3°C 94,1% -0,6°C 1045,0hPa 0,3°C 0,0km/h (0Bft) 0,0km/h 0,0l/m² 0,001klx 0,0min
00:00 0,3°C 94,0% -0,5°C 1045,1hPa 0,3°C 0,0km/h (0Bft) 0,0km/h 0,0l/m² 0,000klx 0,0min

Aktuelle Wetterdaten

20.01.2020 16:05 Uhr